Time;durP1;ratioP1;P1;durP2;ratioP2;P2;SDS_P1;SDS_P2;PMS_P1;PMS_P2;Temp;Humidity;BMP_temperature;BMP_pressure;BME280_temperature;BME280_humidity;BME280_pressure;Samples;Min_cycle;Max_cycle;Signal;HPM_P1;HPM_P2
2022/07/03 00:01:54;;;;;;;1.73;0.43;;;16.50;99.90;;;;;;5067585;28;20083;-58
2022/07/03 00:04:21;;;;;;;2.80;0.57;;;16.40;99.90;;;;;;5078352;28;20040;-59
2022/07/03 00:06:48;;;;;;;4.43;0.77;;;16.40;99.90;;;;;;5056661;28;20441;-59
2022/07/03 00:09:15;;;;;;;2.97;0.68;;;16.50;99.90;;;;;;5066280;28;20086;-59
2022/07/03 00:11:42;;;;;;;1.73;0.73;;;16.50;99.90;;;;;;5067156;28;20075;-59
2022/07/03 00:14:09;;;;;;;2.42;0.60;;;16.50;99.90;;;;;;5066157;28;20052;-59
2022/07/03 00:16:36;;;;;;;1.55;0.50;;;16.50;99.90;;;;;;4714537;28;9999988;-58
2022/07/03 00:19:03;;;;;;;3.38;0.70;;;16.60;99.90;;;;;;5065506;28;20048;-60
2022/07/03 00:21:53;;;;;;;3.28;0.52;;;16.40;99.90;;;;;;5064509;28;20045;-59
2022/07/03 00:24:40;;;;;;;1.20;0.47;;;16.40;99.90;;;;;;5056655;28;20136;-59
2022/07/03 00:27:08;;;;;;;3.30;0.50;;;16.30;99.90;;;;;;5059983;28;20040;-59
2022/07/03 00:29:41;;;;;;;0.90;0.40;;;16.30;99.90;;;;;;5066903;28;20048;-58
2022/07/03 00:32:12;;;;;;;2.03;0.40;;;16.40;99.90;;;;;;5065500;28;20497;-59
2022/07/03 00:34:40;;;;;;;5.53;0.60;;;16.30;99.90;;;;;;5056354;28;20482;-59
2022/07/03 00:37:10;;;;;;;10.60;2.15;;;16.30;99.90;;;;;;5066465;28;20066;-59
2022/07/03 00:39:39;;;;;;;2.22;0.50;;;16.30;99.90;;;;;;5066972;28;20408;-58
2022/07/03 00:42:06;;;;;;;4.20;0.80;;;16.30;99.90;;;;;;5066901;28;20123;-59
2022/07/03 00:44:46;;;;;;;3.97;0.43;;;16.30;99.90;;;;;;5067263;28;20056;-59
2022/07/03 00:47:13;;;;;;;1.40;0.73;;;16.20;99.90;;;;;;5066545;28;20052;-59
2022/07/03 00:49:40;;;;;;;3.10;0.70;;;16.20;99.90;;;;;;5065259;28;20052;-58
2022/07/03 00:52:08;;;;;;;2.60;0.65;;;16.20;99.90;;;;;;5067415;28;20083;-58
2022/07/03 00:54:35;;;;;;;3.28;0.90;;;16.10;99.90;;;;;;5065382;28;20449;-59
2022/07/03 00:57:03;;;;;;;2.53;0.70;;;16.00;99.90;;;;;;5064178;28;20103;-59
2022/07/03 00:59:29;;;;;;;1.15;0.50;;;16.00;99.90;;;;;;5066657;28;20080;-60
2022/07/03 01:02:03;;;;;;;0.63;0.50;;;16.00;99.90;;;;;;5066809;28;20040;-59
2022/07/03 01:04:33;;;;;;;1.55;0.60;;;16.10;99.90;;;;;;5068252;28;20456;-59
2022/07/03 01:07:06;;;;;;;1.30;0.50;;;16.10;99.90;;;;;;5057054;28;20056;-59
2022/07/03 01:09:57;;;;;;;2.67;0.60;;;16.10;99.90;;;;;;5066424;28;20133;-59
2022/07/03 01:12:54;;;;;;;1.42;0.50;;;16.10;99.90;;;;;;5062309;28;20468;-58
2022/07/03 01:15:36;;;;;;;4.72;1.10;;;16.00;99.90;;;;;;5056817;28;20048;-59
2022/07/03 01:18:50;;;;;;;1.63;0.50;;;15.90;99.90;;;;;;5070687;28;20084;-59
2022/07/03 01:21:52;;;;;;;3.60;0.63;;;15.90;99.90;;;;;;5030403;28;20049;-59
2022/07/03 01:24:31;;;;;;;3.47;0.70;;;15.90;99.90;;;;;;5070100;28;20143;-59
2022/07/03 01:27:02;;;;;;;4.15;0.95;;;16.00;99.90;;;;;;5069079;28;20124;-59
2022/07/03 01:29:38;;;;;;;3.05;2.15;;;15.80;99.90;;;;;;5068763;28;20068;-57
2022/07/03 01:32:05;;;;;;;3.67;0.77;;;15.80;99.90;;;;;;5068981;28;20334;-58
2022/07/03 01:34:34;;;;;;;5.95;0.82;;;15.90;99.90;;;;;;5068680;28;20098;-58
2022/07/03 01:37:01;;;;;;;2.58;0.60;;;15.80;99.90;;;;;;5068620;28;20069;-59
2022/07/03 01:39:27;;;;;;;6.70;1.10;;;15.70;99.90;;;;;;5068232;28;20102;-58
2022/07/03 01:42:14;;;;;;;5.40;1.23;;;15.70;99.90;;;;;;5068813;28;20036;-59
2022/07/03 01:44:41;;;;;;;7.80;1.00;;;15.70;99.90;;;;;;5049441;28;20140;-59
2022/07/03 01:47:08;;;;;;;2.03;0.70;;;15.70;99.90;;;;;;5068850;28;20049;-58
2022/07/03 01:49:35;;;;;;;4.13;0.70;;;15.60;99.90;;;;;;5069273;28;20079;-59
2022/07/03 01:52:02;;;;;;;5.22;0.77;;;15.60;99.90;;;;;;5068274;28;20143;-59
2022/07/03 01:54:29;;;;;;;4.25;1.20;;;15.60;99.90;;;;;;5069373;28;20075;-59
2022/07/03 01:56:56;;;;;;;7.30;1.15;;;15.50;99.90;;;;;;5066079;28;20139;-59
2022/07/03 01:59:23;;;;;;;3.63;0.95;;;15.30;99.90;;;;;;5052013;28;20080;-58
2022/07/03 02:02:10;;;;;;;2.83;0.70;;;15.30;99.90;;;;;;5068591;28;20072;-59
2022/07/03 02:04:47;;;;;;;5.78;0.80;;;15.30;99.90;;;;;;5068026;28;20052;-59
2022/07/03 02:07:29;;;;;;;2.72;0.93;;;15.20;99.90;;;;;;5068249;28;20052;-58
2022/07/03 02:10:04;;;;;;;2.83;0.73;;;15.00;99.90;;;;;;5068111;28;20127;-58
2022/07/03 02:12:48;;;;;;;1.75;0.93;;;15.00;99.90;;;;;;5066118;28;20470;-58
2022/07/03 02:15:17;;;;;;;6.40;1.27;;;14.90;99.90;;;;;;5069281;28;20044;-58
2022/07/03 02:17:46;;;;;;;2.17;0.85;;;15.10;99.90;;;;;;5069581;28;20127;-58
2022/07/03 02:20:16;;;;;;;3.00;0.82;;;15.10;99.90;;;;;;5069381;28;20052;-60
2022/07/03 02:22:46;;;;;;;1.13;0.50;;;15.10;99.90;;;;;;5067263;28;20116;-59
2022/07/03 02:25:15;;;;;;;9.23;1.00;;;15.10;99.90;;;;;;5068113;28;20194;-59
2022/07/03 02:27:56;;;;;;;3.53;0.82;;;15.10;99.90;;;;;;5067950;28;20090;-59
2022/07/03 02:30:24;;;;;;;6.78;1.10;;;15.00;99.90;;;;;;5069040;28;20048;-59
2022/07/03 02:32:51;;;;;;;5.35;2.22;;;14.90;99.90;;;;;;5069348;28;20127;-60
2022/07/03 02:35:22;;;;;;;4.65;1.08;;;14.90;99.90;;;;;;5068782;28;20123;-59
2022/07/03 02:38:03;;;;;;;9.68;0.98;;;14.90;99.90;;;;;;5067747;28;20076;-59
2022/07/03 02:41:22;;;;;;;4.38;0.60;;;14.80;99.90;;;;;;5052676;28;20076;-58
2022/07/03 02:43:49;;;;;;;2.17;0.65;;;14.80;99.90;;;;;;5038187;28;20551;-59
2022/07/03 02:46:49;;;;;;;2.03;0.50;;;14.70;99.90;;;;;;5068856;28;20161;-59
2022/07/03 02:49:19;;;;;;;5.35;0.70;;;14.70;99.90;;;;;;5062516;28;20059;-59
2022/07/03 02:52:02;;;;;;;5.72;1.10;;;14.60;99.90;;;;;;5068167;28;20075;-59
2022/07/03 02:54:31;;;;;;;4.03;0.68;;;14.60;99.90;;;;;;5051739;28;20147;-58
2022/07/03 02:57:08;;;;;;;4.20;1.50;;;14.50;99.90;;;;;;5051043;28;20076;-59
2022/07/03 02:59:57;;;;;;;6.97;0.90;;;14.50;99.90;;;;;;5067551;28;20086;-58
2022/07/03 03:02:40;;;;;;;6.20;1.40;;;14.40;99.90;;;;;;5068049;28;20044;-59
2022/07/03 03:05:16;;;;;;;6.32;0.75;;;14.40;99.90;;;;;;5051680;28;20091;-59
2022/07/03 03:07:59;;;;;;;8.52;0.98;;;14.40;99.90;;;;;;5068100;28;20140;-59
2022/07/03 03:10:26;;;;;;;6.70;1.35;;;14.30;99.90;;;;;;5067216;28;20048;-59
2022/07/03 03:13:10;;;;;;;6.88;1.20;;;14.30;99.90;;;;;;5068369;28;20052;-59
2022/07/03 03:15:37;;;;;;;;;;;14.30;99.90;;;;;;5068566;28;20451;-59
2022/07/03 03:18:08;;;;;;;11.57;1.30;;;14.30;99.90;;;;;;5068012;28;19963;-58
2022/07/03 03:20:36;;;;;;;2.28;0.80;;;14.20;99.90;;;;;;5066547;28;20087;-58
2022/07/03 03:23:16;;;;;;;3.55;0.77;;;14.20;99.90;;;;;;5068267;28;20131;-58
2022/07/03 03:25:43;;;;;;;2.03;0.73;;;14.30;99.90;;;;;;5066817;28;20076;-58
2022/07/03 03:28:09;;;;;;;4.47;0.98;;;14.20;99.90;;;;;;5066742;28;20135;-60
2022/07/03 03:30:36;;;;;;;3.60;1.60;;;14.30;99.90;;;;;;5067838;28;20044;-57
2022/07/03 03:33:08;;;;;;;4.40;1.00;;;14.30;99.90;;;;;;5067529;28;20456;-58
2022/07/03 03:35:38;;;;;;;6.25;0.90;;;14.30;99.90;;;;;;5067427;28;20044;-58
2022/07/03 03:38:06;;;;;;;4.70;1.48;;;14.30;99.90;;;;;;5067719;28;20186;-58
2022/07/03 03:40:33;;;;;;;7.93;1.88;;;14.30;99.90;;;;;;5067688;28;20158;-58
2022/07/03 03:43:00;;;;;;;2.63;0.60;;;14.20;99.90;;;;;;5067596;28;20123;-59
2022/07/03 03:45:27;;;;;;;3.20;0.85;;;14.20;99.90;;;;;;5049811;28;20126;-60
2022/07/03 03:47:54;;;;;;;7.63;2.00;;;14.20;99.90;;;;;;5067939;28;20079;-57
2022/07/03 03:50:21;;;;;;;5.45;0.90;;;14.20;99.90;;;;;;5067248;28;20131;-61
2022/07/03 03:52:47;;;;;;;4.03;0.95;;;14.20;99.90;;;;;;5049923;28;20076;-58
2022/07/03 03:55:14;;;;;;;2.83;1.00;;;14.20;99.90;;;;;;5067536;28;20128;-58
2022/07/03 03:57:41;;;;;;;2.65;0.88;;;14.10;99.90;;;;;;5057457;28;20136;-58
2022/07/03 04:00:08;;;;;;;8.23;0.95;;;14.10;99.90;;;;;;5067517;28;20080;-58
2022/07/03 04:02:35;;;;;;;4.55;0.93;;;14.10;99.90;;;;;;5062930;28;20139;-59
2022/07/03 04:05:04;;;;;;;4.28;1.05;;;14.10;99.90;;;;;;5066966;28;20045;-59
2022/07/03 04:07:31;;;;;;;4.30;0.85;;;14.10;99.90;;;;;;5063517;28;20068;-59
2022/07/03 04:09:58;;;;;;;8.65;1.00;;;14.10;99.90;;;;;;5067605;28;20079;-57
2022/07/03 04:12:25;;;;;;;5.40;0.82;;;14.10;99.90;;;;;;5067281;28;20255;-59
2022/07/03 04:14:51;;;;;;;5.30;0.88;;;14.10;99.90;;;;;;5067535;28;20470;-59
2022/07/03 04:17:18;;;;;;;3.80;0.88;;;14.10;99.90;;;;;;5067806;28;20113;-58
2022/07/03 04:19:45;;;;;;;5.97;1.33;;;14.10;99.90;;;;;;5067344;28;20080;-58
2022/07/03 04:22:12;;;;;;;2.67;0.80;;;14.00;99.90;;;;;;5048996;28;20048;-58
2022/07/03 04:24:39;;;;;;;6.55;1.27;;;14.10;99.90;;;;;;5065894;28;20120;-58
2022/07/03 04:27:06;;;;;;;2.30;0.95;;;14.00;99.90;;;;;;5067304;28;20076;-61
2022/07/03 04:29:32;;;;;;;5.20;1.08;;;13.90;99.90;;;;;;5066029;28;20139;-58
2022/07/03 04:31:59;;;;;;;2.33;0.88;;;13.90;99.90;;;;;;5067290;28;20127;-59
2022/07/03 04:34:26;;;;;;;3.30;0.80;;;13.80;99.90;;;;;;5067465;28;20083;-58
2022/07/03 04:36:53;;;;;;;2.33;1.02;;;13.80;99.90;;;;;;5067195;28;20106;-59
2022/07/03 04:39:20;;;;;;;5.97;1.05;;;13.90;99.90;;;;;;5066839;28;21950;-58
2022/07/03 04:41:46;;;;;;;12.27;2.25;;;13.80;99.90;;;;;;5065856;28;20056;-59
2022/07/03 04:44:13;;;;;;;6.43;1.40;;;13.90;99.90;;;;;;5067101;28;20080;-59
2022/07/03 04:46:40;;;;;;;5.05;0.90;;;13.90;99.90;;;;;;5070051;28;20088;-59
2022/07/03 04:49:07;;;;;;;5.18;0.93;;;13.80;99.90;;;;;;5070110;28;20299;-60
2022/07/03 04:51:34;;;;;;;7.30;1.10;;;13.90;99.90;;;;;;5070896;28;20281;-59
2022/07/03 04:54:00;;;;;;;5.07;0.95;;;13.90;99.90;;;;;;5071017;28;20491;-59
2022/07/03 04:56:27;;;;;;;2.90;0.82;;;14.00;99.90;;;;;;5070589;28;20083;-59
2022/07/03 04:58:54;;;;;;;8.45;1.65;;;14.00;99.90;;;;;;5070841;28;20046;-60
2022/07/03 05:01:21;;;;;;;7.63;1.45;;;14.00;99.90;;;;;;5070615;28;20091;-59
2022/07/03 05:03:48;;;;;;;2.85;1.10;;;14.00;99.90;;;;;;5063131;28;20049;-59
2022/07/03 05:06:14;;;;;;;8.43;1.33;;;14.00;99.90;;;;;;5070831;28;20529;-59
2022/07/03 05:08:46;;;;;;;8.73;1.20;;;14.00;99.90;;;;;;5060083;28;20059;-58
2022/07/03 05:11:12;;;;;;;9.80;1.48;;;14.00;99.90;;;;;;5070331;28;20450;-59
2022/07/03 05:13:39;;;;;;;3.45;1.02;;;14.00;99.90;;;;;;5070872;28;20090;-59
2022/07/03 05:16:06;;;;;;;7.90;1.50;;;13.90;99.90;;;;;;5070444;28;20087;-59
2022/07/03 05:18:34;;;;;;;1.27;0.82;;;14.00;99.90;;;;;;5070940;28;20076;-60
2022/07/03 05:21:01;;;;;;;9.02;1.10;;;14.00;99.90;;;;;;5070600;28;20474;-59
2022/07/03 05:23:28;;;;;;;6.28;1.02;;;14.10;99.90;;;;;;5070434;28;20496;-58
2022/07/03 05:25:55;;;;;;;3.47;0.82;;;14.10;99.90;;;;;;5068649;28;20131;-58
2022/07/03 05:28:22;;;;;;;5.13;1.05;;;14.10;99.90;;;;;;5067156;28;20412;-58
2022/07/03 05:30:48;;;;;;;7.63;1.08;;;14.20;99.90;;;;;;5060937;28;20080;-58
2022/07/03 05:33:15;;;;;;;6.75;0.95;;;14.10;99.90;;;;;;5070459;28;20048;-58
2022/07/03 05:35:42;;;;;;;7.45;1.33;;;14.20;99.90;;;;;;5068871;28;20135;-59
2022/07/03 05:38:09;;;;;;;3.35;0.88;;;14.20;99.90;;;;;;5070265;28;20190;-59
2022/07/03 05:40:36;;;;;;;5.20;0.80;;;14.30;99.90;;;;;;5070223;28;20118;-59
2022/07/03 05:43:02;;;;;;;5.28;1.00;;;14.30;99.90;;;;;;5060798;28;20072;-59
2022/07/03 05:45:29;;;;;;;7.30;0.95;;;14.30;99.90;;;;;;5069977;28;20052;-60
2022/07/03 05:47:56;;;;;;;1.85;0.52;;;14.40;99.90;;;;;;5070255;28;20068;-59
2022/07/03 05:50:23;;;;;;;4.30;0.82;;;14.50;99.90;;;;;;5070027;28;20048;-59
2022/07/03 05:52:49;;;;;;;9.52;1.25;;;14.50;99.90;;;;;;5069107;28;20204;-59
2022/07/03 05:55:16;;;;;;;5.85;1.08;;;14.60;99.90;;;;;;5070752;28;20136;-60
2022/07/03 05:57:43;;;;;;;6.78;1.08;;;14.60;99.90;;;;;;5068767;28;20511;-58
2022/07/03 06:00:13;;;;;;;4.22;1.60;;;14.60;99.90;;;;;;5070099;28;20051;-58
2022/07/03 06:02:40;;;;;;;10.65;1.35;;;14.60;99.90;;;;;;5069741;28;20076;-59
2022/07/03 06:05:07;;;;;;;7.80;1.58;;;14.70;99.90;;;;;;5089380;28;20162;-59
2022/07/03 06:07:33;;;;;;;5.55;1.02;;;14.60;99.90;;;;;;5080297;28;20105;-59
2022/07/03 06:10:00;;;;;;;13.82;1.27;;;14.60;99.90;;;;;;5065291;28;20048;-59
2022/07/03 06:12:27;;;;;;;4.25;1.33;;;14.70;99.90;;;;;;5063886;28;20084;-58
2022/07/03 06:14:54;;;;;;;4.63;0.93;;;14.80;99.90;;;;;;5064415;28;20538;-59
2022/07/03 06:17:27;;;;;;;4.45;1.42;;;14.70;99.90;;;;;;5074198;28;20052;-58
2022/07/03 06:19:54;;;;;;;7.00;0.85;;;14.70;99.90;;;;;;5073444;28;20620;-59
2022/07/03 06:22:21;;;;;;;3.30;0.95;;;14.70;99.90;;;;;;5069759;28;20466;-59
2022/07/03 06:24:47;;;;;;;3.67;0.80;;;14.80;99.90;;;;;;5069460;28;20123;-59
2022/07/03 06:27:14;;;;;;;3.03;0.50;;;14.90;99.90;;;;;;5069272;28;20094;-59
2022/07/03 06:29:41;;;;;;;6.85;1.20;;;14.90;99.90;;;;;;5069256;28;20040;-59
2022/07/03 06:32:08;;;;;;;5.38;1.08;;;14.90;99.90;;;;;;5069069;28;20243;-59
2022/07/03 06:34:35;;;;;;;7.53;1.23;;;15.00;99.90;;;;;;5065904;28;20123;-60
2022/07/03 06:37:02;;;;;;;4.78;1.45;;;15.00;99.90;;;;;;5079198;28;20049;-60
2022/07/03 06:39:28;;;;;;;6.15;1.23;;;15.10;99.90;;;;;;5068954;28;20076;-60
2022/07/03 06:41:55;;;;;;;11.30;1.30;;;15.20;99.90;;;;;;5077324;28;20407;-59
2022/07/03 06:44:22;;;;;;;3.97;0.90;;;15.30;99.90;;;;;;5074424;28;20102;-57
2022/07/03 06:46:49;;;;;;;9.98;1.15;;;15.40;99.90;;;;;;5077702;28;20044;-59
2022/07/03 06:49:16;;;;;;;3.03;0.80;;;15.40;99.90;;;;;;5076209;28;20519;-60
2022/07/03 06:51:42;;;;;;;8.30;1.00;;;15.50;99.90;;;;;;5077074;28;20074;-59
2022/07/03 06:54:09;;;;;;;4.65;0.90;;;15.60;99.90;;;;;;5075203;28;20045;-60
2022/07/03 06:56:36;;;;;;;8.30;1.52;;;15.70;99.90;;;;;;5071178;28;20076;-59
2022/07/03 06:59:03;;;;;;;4.18;0.70;;;15.70;99.90;;;;;;5077021;28;20087;-58
2022/07/03 07:01:30;;;;;;;5.45;0.77;;;15.80;99.90;;;;;;5078374;28;20537;-59
2022/07/03 07:03:57;;;;;;;3.75;0.95;;;15.90;99.90;;;;;;5078261;28;20047;-60
2022/07/03 07:06:23;;;;;;;6.97;0.95;;;15.80;99.90;;;;;;5062955;28;20052;-60
2022/07/03 07:08:50;;;;;;;3.40;0.75;;;15.90;99.90;;;;;;5076865;28;20052;-58
2022/07/03 07:11:17;;;;;;;6.10;0.80;;;15.80;99.90;;;;;;5073258;28;20080;-60
2022/07/03 07:13:44;;;;;;;9.80;1.10;;;15.90;99.90;;;;;;5076019;28;20549;-60
2022/07/03 07:16:11;;;;;;;5.15;1.00;;;15.90;99.90;;;;;;5075881;28;20036;-59
2022/07/03 07:18:40;;;;;;;9.25;0.85;;;16.10;99.90;;;;;;5072937;28;20040;-59
2022/07/03 07:21:07;;;;;;;5.18;0.70;;;16.10;99.90;;;;;;5078002;28;20048;-59
2022/07/03 07:23:33;;;;;;;7.45;1.60;;;16.20;99.90;;;;;;5075251;28;20068;-59
2022/07/03 07:26:00;;;;;;;4.90;1.08;;;16.20;99.90;;;;;;5072638;28;20075;-59
2022/07/03 07:28:28;;;;;;;12.02;1.38;;;16.20;99.90;;;;;;5075184;28;20048;-59
2022/07/03 07:30:56;;;;;;;1.80;0.70;;;16.10;99.90;;;;;;5073283;28;20127;-59
2022/07/03 07:33:23;;;;;;;4.45;1.30;;;16.20;99.90;;;;;;5074404;28;20040;-59
2022/07/03 07:35:50;;;;;;;4.05;1.13;;;16.20;99.90;;;;;;5076712;28;20118;-59
2022/07/03 07:38:17;;;;;;;3.97;0.85;;;16.30;99.90;;;;;;5074118;28;20055;-59
2022/07/03 07:40:44;;;;;;;8.38;1.50;;;16.30;99.90;;;;;;5074190;28;20048;-60
2022/07/03 07:43:11;;;;;;;6.43;1.15;;;16.40;99.90;;;;;;5072466;28;20763;-61
2022/07/03 07:45:38;;;;;;;4.32;0.90;;;16.50;99.90;;;;;;5075446;28;20120;-60
2022/07/03 07:48:05;;;;;;;6.05;1.40;;;16.70;99.90;;;;;;4720362;28;9999771;-59
2022/07/03 07:50:32;;;;;;;6.88;2.05;;;16.80;99.90;;;;;;5068470;28;20567;-59
2022/07/03 07:52:58;;;;;;;8.80;1.30;;;16.80;99.90;;;;;;5073225;28;20574;-59
2022/07/03 07:55:25;;;;;;;2.78;0.70;;;16.90;99.90;;;;;;5071215;28;20048;-60
2022/07/03 07:57:52;;;;;;;3.40;1.13;;;16.80;99.90;;;;;;5072731;28;20079;-59
2022/07/03 08:00:21;;;;;;;5.53;0.73;;;16.90;99.90;;;;;;5071474;28;20044;-59
2022/07/03 08:05:36;;;;;;;3.55;0.80;;;17.10;99.90;;;;;;5074769;28;20143;-60
2022/07/03 08:08:14;;;;;;;3.13;0.77;;;17.10;99.90;;;;;;5069449;28;20106;-59
2022/07/03 08:10:44;;;;;;;6.38;1.27;;;17.00;99.90;;;;;;5072280;28;20040;-60
2022/07/03 08:13:11;;;;;;;2.40;0.90;;;17.10;99.90;;;;;;5064599;28;20570;-59
2022/07/03 08:15:41;;;;;;;8.60;0.95;;;17.10;99.90;;;;;;5070171;28;20404;-59
2022/07/03 08:18:08;;;;;;;4.07;0.80;;;17.20;99.90;;;;;;5069984;28;20052;-59
2022/07/03 08:20:35;;;;;;;5.63;1.27;;;17.20;99.90;;;;;;5061891;28;20377;-58
2022/07/03 08:23:02;;;;;;;4.47;0.88;;;17.30;99.90;;;;;;5063462;28;20128;-58
2022/07/03 08:25:32;;;;;;;5.60;1.10;;;17.40;99.90;;;;;;5061993;28;20084;-58
2022/07/03 08:27:59;;;;;;;5.45;1.27;;;17.40;99.90;;;;;;5063535;28;20045;-60
2022/07/03 08:30:26;;;;;;;3.75;0.85;;;17.40;99.90;;;;;;5062401;28;20056;-59
2022/07/03 08:32:54;;;;;;;5.30;0.80;;;17.40;99.90;;;;;;5063522;28;20503;-59
2022/07/03 08:35:21;;;;;;;4.13;0.70;;;17.40;99.90;;;;;;5063260;28;20084;-59
2022/07/03 08:37:48;;;;;;;4.18;0.90;;;17.40;99.90;;;;;;5063723;28;20080;-60
2022/07/03 08:40:15;;;;;;;2.88;0.80;;;17.50;99.90;;;;;;5062529;28;20139;-59
2022/07/03 08:42:49;;;;;;;5.03;1.23;;;17.60;99.90;;;;;;5063721;28;20084;-59
2022/07/03 08:45:20;;;;;;;3.55;1.00;;;17.60;99.90;;;;;;5062829;28;20087;-59
2022/07/03 08:47:48;;;;;;;5.28;0.73;;;17.80;99.90;;;;;;5063881;28;20143;-59
2022/07/03 08:50:16;;;;;;;4.22;1.20;;;17.80;99.80;;;;;;5064160;28;20082;-59
2022/07/03 08:52:43;;;;;;;5.55;0.80;;;17.80;99.30;;;;;;5064210;28;20052;-58
2022/07/03 08:55:10;;;;;;;4.38;1.20;;;17.70;98.50;;;;;;5064434;28;20070;-58
2022/07/03 08:57:37;;;;;;;2.30;1.20;;;17.80;99.20;;;;;;5063524;28;20143;-59
2022/07/03 09:00:06;;;;;;;6.55;1.30;;;17.70;99.20;;;;;;5063266;28;20056;-57
2022/07/03 09:02:33;;;;;;;6.65;1.30;;;17.80;99.00;;;;;;5063835;28;20337;-58
2022/07/03 09:05:01;;;;;;;5.90;1.55;;;17.80;98.00;;;;;;5068410;28;20040;-57
2022/07/03 09:07:36;;;;;;;3.22;0.80;;;17.90;98.60;;;;;;5063446;28;20076;-58
2022/07/03 09:10:04;;;;;;;3.03;0.88;;;17.90;98.60;;;;;;5061918;28;20036;-58
2022/07/03 09:12:31;;;;;;;4.47;0.88;;;17.90;98.60;;;;;;5062129;28;20176;-59
2022/07/03 09:15:05;;;;;;;4.80;1.02;;;17.90;98.20;;;;;;5063797;28;20168;-58
2022/07/03 09:17:32;;;;;;;2.83;0.82;;;18.00;97.90;;;;;;5063616;28;20127;-59
2022/07/03 09:20:00;;;;;;;3.05;1.10;;;17.90;97.90;;;;;;5063658;28;20139;-59
2022/07/03 09:22:31;;;;;;;4.57;0.98;;;18.10;98.50;;;;;;5045108;28;20052;-59
2022/07/03 09:25:09;;;;;;;2.83;0.90;;;18.20;97.40;;;;;;5063959;28;20676;-59
2022/07/03 09:27:36;;;;;;;3.67;0.80;;;18.20;97.60;;;;;;5072028;28;20137;-60
2022/07/03 09:30:04;;;;;;;4.32;1.00;;;18.30;97.40;;;;;;5066703;28;20098;-59
2022/07/03 09:32:34;;;;;;;1.88;0.50;;;18.50;97.40;;;;;;5073118;28;20728;-59
2022/07/03 09:35:22;;;;;;;2.50;0.88;;;18.70;97.20;;;;;;5071120;28;20135;-59
2022/07/03 09:37:52;;;;;;;2.88;0.77;;;18.80;95.50;;;;;;5075444;28;20040;-59
2022/07/03 09:40:19;;;;;;;4.43;0.90;;;19.00;96.30;;;;;;5075351;28;20058;-59
2022/07/03 09:43:07;;;;;;;2.70;0.60;;;19.10;95.90;;;;;;5066886;28;20114;-59
2022/07/03 09:45:54;;;;;;;4.70;0.68;;;19.20;94.00;;;;;;5066080;28;20048;-59
2022/07/03 09:48:21;;;;;;;3.33;0.73;;;19.20;94.30;;;;;;5073738;28;20052;-60
2022/07/03 09:51:12;;;;;;;5.50;0.73;;;19.20;95.50;;;;;;5070771;28;20048;-60
2022/07/03 09:53:45;;;;;;;3.75;0.90;;;19.00;92.90;;;;;;5074747;28;20048;-59
2022/07/03 09:56:16;;;;;;;1.98;0.75;;;19.00;93.30;;;;;;5074020;28;20075;-60
2022/07/03 09:59:11;;;;;;;5.22;1.40;;;19.00;94.80;;;;;;5072969;28;20078;-59
2022/07/03 10:01:38;;;;;;;5.18;0.88;;;19.10;93.90;;;;;;5067000;28;20543;-63
2022/07/03 10:04:17;;;;;;;4.07;0.65;;;19.30;94.80;;;;;;5073805;28;20963;-59
2022/07/03 10:06:53;;;;;;;3.00;0.63;;;19.40;93.50;;;;;;5076238;28;20140;-59
2022/07/03 10:09:33;;;;;;;5.20;0.82;;;19.30;94.40;;;;;;5069346;28;20052;-59
2022/07/03 10:12:02;;;;;;;1.58;0.50;;;19.20;93.30;;;;;;5069056;28;20070;-59
2022/07/03 10:14:30;;;;;;;3.40;1.27;;;19.40;91.20;;;;;;5068283;28;20063;-60
2022/07/03 10:17:01;;;;;;;3.60;0.60;;;19.40;91.60;;;;;;5070149;28;20049;-59
2022/07/03 10:19:31;;;;;;;2.38;0.75;;;19.90;91.60;;;;;;5066047;28;20044;-59
2022/07/03 10:22:02;;;;;;;4.18;0.85;;;20.30;91.80;;;;;;5065925;28;20135;-60
2022/07/03 10:24:30;;;;;;;2.65;1.30;;;20.60;90.10;;;;;;5062692;28;20044;-60
2022/07/03 10:26:58;;;;;;;3.15;0.60;;;20.90;90.80;;;;;;5071669;28;20052;-59
2022/07/03 10:29:26;;;;;;;2.03;0.50;;;20.70;90.80;;;;;;5073640;28;20458;-59
2022/07/03 10:31:55;;;;;;;4.28;1.02;;;20.70;91.00;;;;;;5065981;28;20503;-60
2022/07/03 10:34:24;;;;;;;3.15;0.88;;;21.20;89.50;;;;;;5065774;28;20048;-59
2022/07/03 10:37:00;;;;;;;2.67;0.50;;;21.50;84.50;;;;;;5066596;28;20135;-60
2022/07/03 10:44:45;;;;;;;1.48;0.98;;;21.40;85.40;;;;;;5071644;28;20437;-60
2022/07/03 10:45:37;;;;;;;0.75;0.68;;;22.20;85.60;;;;;;5062958;28;20149;-59
2022/07/03 10:48:04;;;;;;;3.95;0.60;;;22.20;82.50;;;;;;5064512;28;20131;-58
2022/07/03 10:50:36;;;;;;;5.82;0.73;;;21.60;81.40;;;;;;5065414;28;20487;-58
2022/07/03 10:53:21;;;;;;;1.27;0.63;;;21.00;86.20;;;;;;5064576;28;20465;-58
2022/07/03 10:56:06;;;;;;;2.13;0.60;;;20.80;86.50;;;;;;5065898;28;20056;-58
2022/07/03 10:58:57;;;;;;;2.63;0.82;;;20.60;88.50;;;;;;5054652;28;20056;-59
2022/07/03 11:01:30;;;;;;;3.63;0.68;;;20.60;89.50;;;;;;5064140;28;20052;-59
2022/07/03 11:04:01;;;;;;;2.78;0.70;;;20.40;90.30;;;;;;5065033;28;20053;-59
2022/07/03 11:06:48;;;;;;;1.65;0.75;;;20.30;90.60;;;;;;5065216;28;20098;-59
2022/07/03 11:09:15;;;;;;;1.50;0.50;;;20.10;90.30;;;;;;5069840;28;20083;-59
2022/07/03 11:11:54;;;;;;;2.53;0.68;;;20.00;91.00;;;;;;5063629;28;20048;-58
2022/07/03 11:14:23;;;;;;;2.72;0.88;;;20.00;90.90;;;;;;5063277;28;20048;-61
2022/07/03 11:17:05;;;;;;;2.35;0.70;;;20.00;90.90;;;;;;5062944;28;20467;-60
2022/07/03 11:19:33;;;;;;;2.25;0.90;;;20.20;91.10;;;;;;5062562;28;20054;-60
2022/07/03 11:22:00;;;;;;;2.53;0.60;;;20.30;90.90;;;;;;5062213;28;20071;-59
2022/07/03 11:24:42;;;;;;;4.50;0.80;;;20.50;90.90;;;;;;5061914;28;20127;-60
2022/07/03 11:27:14;;;;;;;2.95;0.77;;;20.60;90.10;;;;;;5062242;28;20048;-60
2022/07/03 11:29:41;;;;;;;3.53;0.93;;;20.60;88.30;;;;;;5063162;28;20155;-60
2022/07/03 11:32:42;;;;;;;1.90;0.73;;;20.50;89.50;;;;;;5063154;28;20137;-60
2022/07/03 11:35:29;;;;;;;3.40;0.63;;;20.40;87.40;;;;;;5055792;28;20314;-59
2022/07/03 11:37:56;;;;;;;2.28;0.73;;;20.00;87.20;;;;;;5062671;28;20043;-59
2022/07/03 11:40:24;;;;;;;2.08;0.65;;;20.00;88.80;;;;;;5062835;28;20079;-60
2022/07/03 11:42:51;;;;;;;3.25;0.80;;;20.10;89.20;;;;;;5046406;28;20534;-60
2022/07/03 11:45:17;;;;;;;3.22;0.60;;;20.20;89.00;;;;;;5064303;28;20143;-59
2022/07/03 11:47:44;;;;;;;12.30;7.40;;;20.30;88.50;;;;;;5062283;28;20563;-60
2022/07/03 11:50:11;;;;;;;15.13;9.15;;;20.40;85.00;;;;;;5065181;28;20044;-60
2022/07/03 11:52:38;;;;;;;2.95;0.80;;;20.40;88.10;;;;;;5062847;28;20098;-60
2022/07/03 11:55:05;;;;;;;3.15;0.80;;;20.50;84.80;;;;;;5061593;28;20087;-60
2022/07/03 11:57:32;;;;;;;0.93;0.43;;;20.60;84.30;;;;;;5063012;28;20151;-60
2022/07/03 12:00:05;;;;;;;1.42;0.60;;;20.80;84.90;;;;;;5062804;28;20135;-58
2022/07/03 12:02:32;;;;;;;2.58;0.68;;;21.00;80.60;;;;;;5053168;28;20499;-59
2022/07/03 12:04:58;;;;;;;4.95;1.77;;;21.00;83.70;;;;;;5063759;28;20116;-59
2022/07/03 12:07:25;;;;;;;1.95;0.70;;;21.00;82.50;;;;;;5042544;28;20088;-59
2022/07/03 12:09:52;;;;;;;0.90;0.47;;;21.10;81.20;;;;;;5060869;28;20126;-60
2022/07/03 12:12:22;;;;;;;3.33;0.55;;;21.30;82.00;;;;;;5064177;28;20061;-60
2022/07/03 12:14:50;;;;;;;3.40;0.65;;;21.50;80.00;;;;;;5062676;28;20087;-60
2022/07/03 12:17:18;;;;;;;1.40;0.45;;;21.50;79.70;;;;;;5063713;28;20056;-60
2022/07/03 12:19:48;;;;;;;4.32;1.08;;;21.40;80.10;;;;;;5063967;28;20048;-60
2022/07/03 12:22:42;;;;;;;9.02;4.78;;;21.50;77.80;;;;;;5063429;28;20052;-60
2022/07/03 12:25:12;;;;;;;1.98;0.90;;;21.50;75.60;;;;;;5060724;28;20040;-60
2022/07/03 12:27:43;;;;;;;5.63;1.50;;;21.50;77.20;;;;;;5063710;28;20048;-60
2022/07/03 12:30:12;;;;;;;3.47;1.17;;;21.30;77.00;;;;;;5045833;28;20152;-60
2022/07/03 12:32:38;;;;;;;4.60;1.80;;;21.30;78.90;;;;;;5063551;28;20091;-61
2022/07/03 12:35:06;;;;;;;2.72;1.33;;;21.30;76.90;;;;;;5061819;28;20162;-60
2022/07/03 12:37:33;;;;;;;2.60;0.68;;;21.30;77.00;;;;;;5063598;28;20098;-59
2022/07/03 12:40:00;;;;;;;1.80;0.70;;;21.40;77.90;;;;;;5060148;28;20111;-59
2022/07/03 12:42:27;;;;;;;3.17;1.10;;;21.40;76.30;;;;;;5063608;28;20052;-60
2022/07/03 12:45:04;;;;;;;2.72;1.00;;;21.40;77.40;;;;;;5063626;28;20131;-59
2022/07/03 12:47:31;;;;;;;6.75;0.98;;;21.50;75.60;;;;;;5063355;28;20163;-60
2022/07/03 12:50:06;;;;;;;3.70;1.42;;;21.60;75.70;;;;;;5062334;28;20128;-59
2022/07/03 12:52:48;;;;;;;1.13;0.77;;;21.50;72.60;;;;;;5063511;28;20122;-60
2022/07/03 12:55:28;;;;;;;1.95;0.60;;;21.70;73.10;;;;;;5060130;28;20072;-58
2022/07/03 13:00:56;;;;;;;4.13;1.75;;;22.00;73.10;;;;;;5056874;28;20045;-59
2022/07/03 13:04:09;;;;;;;2.63;1.42;;;22.40;74.60;;;;;;5067744;28;20484;-59
2022/07/03 13:07:18;;;;;;;3.72;1.70;;;22.60;70.70;;;;;;5038816;28;20150;-59
2022/07/03 13:10:33;;;;;;;3.70;0.90;;;22.50;71.20;;;;;;5050444;28;20045;-59
2022/07/03 13:13:14;;;;;;;7.72;2.83;;;22.60;69.90;;;;;;5046678;28;20049;-60
2022/07/03 13:15:42;;;;;;;1.42;0.80;;;22.50;72.30;;;;;;5048675;28;20037;-59